createdAt,value
2018-03-03T00:01:06.876Z,96.20
2018-03-03T00:03:35.283Z,96.20
2018-03-03T00:06:02.955Z,96.20
2018-03-03T00:08:30.527Z,96.50
2018-03-03T00:10:58.070Z,96.20
2018-03-03T00:13:26.414Z,96.20
2018-03-03T00:15:53.947Z,96.20
2018-03-03T00:18:21.633Z,96.20
2018-03-03T00:20:49.535Z,96.30
2018-03-03T00:23:17.068Z,96.20
2018-03-03T00:25:44.606Z,96.30
2018-03-03T00:28:12.228Z,96.40
2018-03-03T00:30:39.754Z,96.50
2018-03-03T00:33:08.062Z,96.50
2018-03-03T00:35:36.482Z,96.50
2018-03-03T00:38:04.014Z,96.50
2018-03-03T00:40:32.325Z,96.70
2018-03-03T00:42:59.897Z,96.60
2018-03-03T00:45:27.583Z,96.60
2018-03-03T00:47:55.119Z,96.60
2018-03-03T00:50:23.544Z,96.70
2018-03-03T00:52:51.074Z,96.70
2018-03-03T00:55:18.602Z,96.60
2018-03-03T00:57:46.365Z,96.60
2018-03-03T01:00:14.394Z,96.60
2018-03-03T01:02:43.457Z,96.40
2018-03-03T01:05:11.225Z,96.40
2018-03-03T01:07:38.762Z,96.30
2018-03-03T01:10:07.098Z,96.50
2018-03-03T01:12:34.678Z,96.50
2018-03-03T01:15:02.244Z,96.50
2018-03-03T01:17:29.798Z,96.50
2018-03-03T01:19:57.503Z,96.50
2018-03-03T01:22:25.030Z,96.70
2018-03-03T01:24:52.613Z,96.70
2018-03-03T01:27:20.290Z,96.80
2018-03-03T01:29:47.963Z,97.00
2018-03-03T01:32:15.498Z,96.90
2018-03-03T01:34:43.841Z,97.10
2018-03-03T01:37:11.391Z,97.10
2018-03-03T01:39:38.917Z,97.10
2018-03-03T01:42:06.490Z,97.20
2018-03-03T01:44:34.217Z,97.30
2018-03-03T01:47:01.779Z,97.30
2018-03-03T01:49:29.362Z,97.30
2018-03-03T01:51:56.905Z,97.50
2018-03-03T01:54:25.216Z,97.50
2018-03-03T01:56:52.898Z,97.50
2018-03-03T01:59:20.430Z,97.60
2018-03-03T02:01:48.730Z,97.70
2018-03-03T02:04:16.419Z,97.70
2018-03-03T02:06:43.970Z,97.80
2018-03-03T02:09:12.278Z,97.80
2018-03-03T02:11:39.850Z,97.80
2018-03-03T02:14:07.504Z,97.80
2018-03-03T02:16:35.834Z,98.10
2018-03-03T02:19:03.561Z,98.00
2018-03-03T02:21:31.159Z,98.00
2018-03-03T02:23:58.728Z,98.10
2018-03-03T02:26:26.506Z,98.00
2018-03-03T02:28:54.041Z,97.90
2018-03-03T02:31:22.343Z,98.00
2018-03-03T02:33:50.691Z,98.10
2018-03-03T02:36:18.219Z,98.00
2018-03-03T02:38:45.756Z,98.10
2018-03-03T02:41:13.372Z,98.10
2018-03-03T02:43:40.907Z,98.10
2018-03-03T02:46:09.207Z,98.00
2018-03-03T02:48:37.724Z,98.10
2018-03-03T02:51:05.266Z,98.10
2018-03-03T02:53:33.581Z,98.00
2018-03-03T02:56:01.253Z,98.00
2018-03-03T02:58:28.782Z,98.00
2018-03-03T03:00:56.322Z,97.90
2018-03-03T03:03:23.922Z,97.80
2018-03-03T03:05:51.540Z,97.70
2018-03-03T03:08:19.088Z,97.60
2018-03-03T03:10:47.444Z,97.60
2018-03-03T03:13:14.986Z,97.50
2018-03-03T03:15:42.545Z,97.50
2018-03-03T03:18:10.122Z,97.50
2018-03-03T03:20:37.688Z,97.30
2018-03-03T03:23:05.214Z,97.20
2018-03-03T03:25:32.796Z,97.40
2018-03-03T03:28:01.094Z,97.20
2018-03-03T03:30:29.403Z,97.30
2018-03-03T03:32:56.980Z,97.30
2018-03-03T03:35:24.548Z,97.30
2018-03-03T03:37:52.076Z,97.20
2018-03-03T03:40:19.655Z,97.20
2018-03-03T03:42:47.976Z,97.60
2018-03-03T03:45:15.554Z,97.30
2018-03-03T03:47:43.339Z,97.30
2018-03-03T03:50:10.915Z,97.30
2018-03-03T03:52:38.447Z,97.30
2018-03-03T03:55:06.794Z,97.20
2018-03-03T03:57:34.531Z,97.30
2018-03-03T04:00:02.063Z,97.20
2018-03-03T04:02:29.676Z,97.30
2018-03-03T04:04:57.244Z,97.40
2018-03-03T04:07:24.920Z,97.40
2018-03-03T04:09:52.495Z,97.40
2018-03-03T04:12:20.031Z,97.50
2018-03-03T04:14:48.335Z,97.60
2018-03-03T04:17:15.921Z,97.60
2018-03-03T04:19:43.600Z,97.50
2018-03-03T04:22:11.131Z,97.60
2018-03-03T04:24:38.716Z,97.60
2018-03-03T04:27:07.015Z,97.80
2018-03-03T04:29:34.548Z,97.70
2018-03-03T04:32:02.172Z,97.80
2018-03-03T04:34:29.842Z,97.70
2018-03-03T04:36:57.373Z,97.70
2018-03-03T04:39:26.466Z,97.80
2018-03-03T04:41:54.006Z,97.80
2018-03-03T04:44:21.544Z,97.80
2018-03-03T04:46:49.953Z,97.90
2018-03-03T04:49:17.482Z,97.90
2018-03-03T04:51:45.023Z,97.80
2018-03-03T04:54:12.598Z,97.70
2018-03-03T04:56:40.140Z,97.80
2018-03-03T04:59:25.642Z,97.90
2018-03-03T05:01:55.569Z,98.00
2018-03-03T05:04:23.125Z,98.00
2018-03-03T05:09:58.617Z,98.00
2018-03-03T05:12:26.202Z,98.20
2018-03-03T05:18:09.171Z,98.10
2018-03-03T05:20:56.700Z,98.10
2018-03-03T05:23:43.961Z,98.10
2018-03-03T05:26:17.180Z,98.30
2018-03-03T05:28:50.785Z,98.40
2018-03-03T05:34:40.989Z,98.40
2018-03-03T05:37:28.240Z,98.50
2018-03-03T05:40:01.439Z,98.40
2018-03-03T05:45:41.629Z,98.60
2018-03-03T05:48:24.875Z,98.50
2018-03-03T05:50:58.246Z,98.50
2018-03-03T05:56:37.361Z,98.30
2018-03-03T05:59:19.877Z,98.80
2018-03-03T06:01:53.044Z,98.50
2018-03-03T06:04:33.349Z,98.50
2018-03-03T06:07:06.897Z,98.60
2018-03-03T06:09:50.222Z,98.50
2018-03-03T06:12:17.802Z,98.60
2018-03-03T06:14:45.338Z,98.70
2018-03-03T06:17:12.930Z,98.70
2018-03-03T06:19:40.594Z,98.80
2018-03-03T06:22:08.135Z,98.70
2018-03-03T06:24:36.452Z,98.60
2018-03-03T06:27:04.131Z,98.60
2018-03-03T06:29:31.710Z,98.50
2018-03-03T06:31:59.370Z,98.50
2018-03-03T06:34:26.954Z,98.50
2018-03-03T06:36:54.490Z,98.30
2018-03-03T06:39:22.803Z,98.10
2018-03-03T06:41:50.382Z,98.10
2018-03-03T06:44:17.916Z,98.00
2018-03-03T06:46:46.436Z,97.90
2018-03-03T06:49:14.021Z,97.90
2018-03-03T06:51:41.556Z,97.90
2018-03-03T06:54:09.867Z,97.70
2018-03-03T06:56:37.442Z,97.70
2018-03-03T06:59:05.012Z,97.50
2018-03-03T07:01:32.568Z,97.30
2018-03-03T07:04:00.161Z,97.40
2018-03-03T07:06:27.746Z,97.30
2018-03-03T07:08:55.294Z,97.40
2018-03-03T07:11:23.348Z,97.10
2018-03-03T07:13:51.646Z,97.10
2018-03-03T07:16:19.947Z,96.90
2018-03-03T07:18:47.526Z,96.90
2018-03-03T07:21:18.079Z,96.70
2018-03-03T07:23:45.638Z,96.70
2018-03-03T07:26:13.220Z,96.50
2018-03-03T07:28:40.887Z,97.20
2018-03-03T07:31:08.455Z,97.90
2018-03-03T07:33:36.130Z,96.40
2018-03-03T07:36:03.679Z,95.80
2018-03-03T07:38:32.016Z,95.60
2018-03-03T07:40:59.614Z,95.50
2018-03-03T07:43:27.150Z,95.30
2018-03-03T07:45:54.703Z,95.00
2018-03-03T07:48:22.515Z,95.00
2018-03-03T07:50:50.055Z,94.40
2018-03-03T07:53:17.620Z,94.10
2018-03-03T07:55:45.211Z,93.70
2018-03-03T07:58:24.811Z,93.30
2018-03-03T08:00:52.417Z,92.50
2018-03-03T08:05:50.838Z,91.40
2018-03-03T08:08:18.422Z,91.40
2018-03-03T08:10:45.999Z,91.10
2018-03-03T08:13:13.554Z,90.50
2018-03-03T08:15:41.137Z,90.00
2018-03-03T08:18:08.678Z,87.90
2018-03-03T08:20:36.998Z,86.10
2018-03-03T08:23:04.570Z,86.10
2018-03-03T08:25:32.111Z,85.20
2018-03-03T08:27:59.683Z,84.70
2018-03-03T08:30:27.271Z,83.00
2018-03-03T08:32:54.944Z,81.70
2018-03-03T08:35:22.497Z,82.70
2018-03-03T08:37:50.190Z,83.20
2018-03-03T08:40:17.728Z,81.80
2018-03-03T08:42:46.034Z,81.40
2018-03-03T08:45:13.614Z,81.30
2018-03-03T08:47:41.149Z,80.30
2018-03-03T08:50:08.686Z,79.10
2018-03-03T08:52:36.250Z,78.70
2018-03-03T08:55:03.903Z,77.60
2018-03-03T08:57:31.434Z,77.20
2018-03-03T08:59:59.779Z,75.50
2018-03-03T09:02:27.386Z,75.50
2018-03-03T09:04:55.688Z,73.80
2018-03-03T09:07:23.409Z,73.80
2018-03-03T09:09:50.999Z,73.10
2018-03-03T09:12:18.542Z,72.10
2018-03-03T09:14:46.126Z,69.90
2018-03-03T09:17:13.667Z,69.20
2018-03-03T09:19:41.971Z,69.90
2018-03-03T09:22:09.550Z,69.90
2018-03-03T09:24:37.126Z,68.80
2018-03-03T09:27:04.708Z,67.80
2018-03-03T09:29:32.285Z,68.20
2018-03-03T09:31:59.828Z,67.10
2018-03-03T09:34:27.368Z,66.80
2018-03-03T09:36:55.706Z,66.50
2018-03-03T09:39:23.265Z,66.40
2018-03-03T09:41:50.800Z,65.60
2018-03-03T09:44:19.329Z,63.20
2018-03-03T09:46:46.883Z,63.20
2018-03-03T09:49:14.470Z,63.70
2018-03-03T09:51:42.069Z,62.50
2018-03-03T09:54:09.603Z,61.80
2018-03-03T09:56:37.306Z,62.40
2018-03-03T09:59:04.886Z,63.40
2018-03-03T10:01:32.511Z,63.00
2018-03-03T10:03:59.998Z,63.60
2018-03-03T10:06:27.650Z,62.60
2018-03-03T10:08:55.956Z,62.60
2018-03-03T10:11:23.508Z,62.60
2018-03-03T10:13:51.852Z,59.80
2018-03-03T10:16:19.493Z,59.80
2018-03-03T10:18:47.042Z,59.50
2018-03-03T10:21:15.475Z,61.20
2018-03-03T10:23:43.038Z,61.60
2018-03-03T10:26:10.574Z,64.00
2018-03-03T10:28:38.948Z,61.50
2018-03-03T10:31:06.485Z,61.40
2018-03-03T10:33:34.031Z,60.40
2018-03-03T10:36:01.703Z,59.50
2018-03-03T10:38:29.230Z,59.50
2018-03-03T10:40:56.766Z,58.70
2018-03-03T10:43:24.438Z,57.40
2018-03-03T10:45:51.971Z,57.40
2018-03-03T10:48:20.278Z,57.80
2018-03-03T10:50:47.909Z,57.80
2018-03-03T10:53:15.524Z,58.10
2018-03-03T10:55:43.059Z,58.20
2018-03-03T10:58:11.692Z,57.20
2018-03-03T11:00:39.230Z,57.10
2018-03-03T11:03:07.887Z,58.10
2018-03-03T11:05:35.480Z,58.10
2018-03-03T11:08:03.014Z,58.10
2018-03-03T11:10:30.561Z,57.50
2018-03-03T11:12:58.183Z,57.20
2018-03-03T11:15:25.711Z,55.80
2018-03-03T11:17:53.242Z,55.00
2018-03-03T11:20:20.839Z,55.40
2018-03-03T11:22:49.143Z,56.40
2018-03-03T11:25:16.702Z,56.40
2018-03-03T11:27:44.306Z,56.60
2018-03-03T11:30:11.852Z,56.30
2018-03-03T11:32:39.589Z,56.50
2018-03-03T11:35:08.683Z,55.90
2018-03-03T11:37:36.226Z,55.90
2018-03-03T11:40:03.758Z,55.20
2018-03-03T11:42:32.107Z,55.50
2018-03-03T11:44:59.648Z,55.50
2018-03-03T11:47:27.256Z,55.80
2018-03-03T11:49:54.890Z,55.70
2018-03-03T11:52:22.674Z,55.60
2018-03-03T11:54:50.406Z,56.10
2018-03-03T11:57:18.762Z,56.10
2018-03-03T11:59:46.313Z,56.10
2018-03-03T12:02:13.865Z,56.60
2018-03-03T12:04:41.454Z,57.40
2018-03-03T12:07:08.999Z,55.70
2018-03-03T12:09:36.539Z,55.40
2018-03-03T12:12:04.137Z,54.60
2018-03-03T12:14:32.442Z,54.30
2018-03-03T12:17:00.768Z,55.10
2018-03-03T12:19:28.351Z,54.90
2018-03-03T12:21:55.886Z,54.10
2018-03-03T12:24:24.302Z,54.40
2018-03-03T12:26:51.891Z,54.40
2018-03-03T12:29:19.482Z,54.70
2018-03-03T12:31:47.070Z,53.70
2018-03-03T12:34:14.647Z,54.30
2018-03-03T12:36:42.199Z,54.10
2018-03-03T12:39:09.834Z,54.40
2018-03-03T12:41:37.747Z,54.50
2018-03-03T12:44:05.268Z,54.70
2018-03-03T12:46:33.569Z,55.30
2018-03-03T12:49:01.283Z,55.20
2018-03-03T12:51:28.824Z,55.00
2018-03-03T12:53:56.366Z,62.90
2018-03-03T12:56:24.811Z,56.80
2018-03-03T12:58:52.434Z,56.70
2018-03-03T13:01:20.638Z,55.40
2018-03-03T13:03:48.305Z,53.10
2018-03-03T13:06:15.857Z,53.20
2018-03-03T13:08:44.178Z,53.20
2018-03-03T13:11:11.787Z,53.20
2018-03-03T13:13:39.333Z,53.00
2018-03-03T13:16:06.918Z,52.30
2018-03-03T13:18:34.602Z,52.90
2018-03-03T13:21:02.142Z,53.00
2018-03-03T13:23:29.723Z,53.90
2018-03-03T13:25:57.362Z,53.90
2018-03-03T13:28:24.945Z,53.90
2018-03-03T13:30:52.520Z,53.60
2018-03-03T13:33:20.098Z,53.80
2018-03-03T13:35:47.642Z,54.40
2018-03-03T13:38:16.012Z,55.30
2018-03-03T13:40:43.591Z,55.10
2018-03-03T13:43:11.912Z,54.30
2018-03-03T13:45:39.486Z,54.20
2018-03-03T13:48:07.184Z,54.50
2018-03-03T13:50:34.725Z,55.40
2018-03-03T13:53:02.268Z,55.80
2018-03-03T13:55:30.623Z,55.80
2018-03-03T13:57:58.262Z,55.70
2018-03-03T14:00:25.831Z,54.70
2018-03-03T14:02:53.411Z,54.80
2018-03-03T14:05:20.954Z,55.00
2018-03-03T14:07:49.255Z,56.00
2018-03-03T14:10:16.954Z,56.00
2018-03-03T14:12:44.515Z,56.40
2018-03-03T14:15:12.101Z,57.00
2018-03-03T14:17:39.692Z,57.20
2018-03-03T14:20:07.226Z,57.50
2018-03-03T14:22:34.754Z,58.30
2018-03-03T14:25:02.579Z,57.70
2018-03-03T14:27:30.155Z,57.80
2018-03-03T14:29:57.820Z,57.90
2018-03-03T14:32:25.399Z,57.70
2018-03-03T14:34:52.929Z,58.10
2018-03-03T14:37:20.455Z,58.40
2018-03-03T14:39:48.024Z,58.20
2018-03-03T14:42:15.577Z,59.10
2018-03-03T14:44:43.118Z,57.60
2018-03-03T14:47:11.460Z,58.40
2018-03-03T14:49:39.005Z,58.20
2018-03-03T14:52:06.541Z,58.70
2018-03-03T14:54:34.131Z,58.40
2018-03-03T14:57:02.426Z,58.70
2018-03-03T14:59:29.954Z,58.70
2018-03-03T15:01:57.556Z,58.40
2018-03-03T15:04:25.973Z,58.10
2018-03-03T15:06:53.511Z,58.10
2018-03-03T15:09:21.862Z,59.00
2018-03-03T15:11:49.398Z,59.00
2018-03-03T15:14:16.931Z,58.90
2018-03-03T15:16:44.530Z,59.30
2018-03-03T15:19:12.937Z,59.40
2018-03-03T15:21:40.475Z,59.40
2018-03-03T15:24:08.903Z,59.50
2018-03-03T15:26:36.478Z,59.40
2018-03-03T15:29:04.049Z,59.70
2018-03-03T15:31:31.715Z,60.60
2018-03-03T15:33:59.255Z,60.50
2018-03-03T15:36:27.558Z,60.70
2018-03-03T15:38:56.002Z,60.70
2018-03-03T15:41:23.527Z,60.70
2018-03-03T15:43:51.099Z,60.80
2018-03-03T15:46:18.695Z,60.70
2018-03-03T15:48:46.231Z,60.70
2018-03-03T15:51:14.558Z,62.00
2018-03-03T15:53:42.126Z,61.90
2018-03-03T15:56:09.682Z,62.10
2018-03-03T15:58:37.270Z,62.40
2018-03-03T16:01:04.925Z,63.10
2018-03-03T16:03:32.458Z,63.20
2018-03-03T16:06:00.785Z,63.80
2018-03-03T16:08:28.464Z,62.90
2018-03-03T16:10:56.011Z,62.40
2018-03-03T16:13:24.319Z,63.20
2018-03-03T16:15:51.888Z,63.20
2018-03-03T16:18:19.467Z,62.90
2018-03-03T16:20:47.137Z,62.50
2018-03-03T16:23:14.716Z,62.50
2018-03-03T16:25:42.253Z,63.20
2018-03-03T16:28:10.571Z,63.70
2018-03-03T16:30:38.154Z,63.70
2018-03-03T16:33:05.690Z,64.10
2018-03-03T16:35:33.239Z,64.70
2018-03-03T16:38:00.818Z,64.60
2018-03-03T16:40:29.151Z,64.60
2018-03-03T16:42:56.692Z,64.60
2018-03-03T16:45:25.036Z,65.20
2018-03-03T16:47:52.577Z,65.10
2018-03-03T16:50:20.149Z,65.40
2018-03-03T16:52:47.932Z,65.50
2018-03-03T16:55:15.463Z,65.80
2018-03-03T16:57:43.790Z,66.00
2018-03-03T17:00:11.367Z,66.00
2018-03-03T17:02:38.910Z,66.50
2018-03-03T17:05:06.447Z,66.70
2018-03-03T17:07:35.546Z,66.90
2018-03-03T17:10:03.103Z,67.60
2018-03-03T17:12:30.655Z,67.00
2018-03-03T17:14:58.521Z,67.40
2018-03-03T17:17:26.067Z,67.70
2018-03-03T17:19:53.598Z,68.20
2018-03-03T17:22:21.185Z,67.70
2018-03-03T17:24:48.828Z,67.40
2018-03-03T17:27:16.376Z,67.50
2018-03-03T17:29:43.983Z,67.90
2018-03-03T17:32:11.524Z,68.00
2018-03-03T17:34:39.058Z,68.20
2018-03-03T17:37:07.399Z,68.50
2018-03-03T17:39:34.934Z,68.50
2018-03-03T17:42:03.343Z,69.00
2018-03-03T17:44:30.932Z,69.00
2018-03-03T17:46:58.482Z,69.00
2018-03-03T17:49:26.031Z,69.40
2018-03-03T17:51:54.455Z,70.10
2018-03-03T17:54:22.038Z,70.10
2018-03-03T17:56:49.575Z,70.10
2018-03-03T17:59:17.170Z,70.60
2018-03-03T18:01:44.798Z,70.80
2018-03-03T18:04:13.105Z,71.40
2018-03-03T18:06:41.455Z,71.40
2018-03-03T18:09:09.000Z,71.40
2018-03-03T18:11:36.535Z,71.90
2018-03-03T18:14:04.884Z,72.80
2018-03-03T18:16:32.515Z,72.80
2018-03-03T18:19:00.930Z,73.00
2018-03-03T18:21:28.699Z,73.00
2018-03-03T18:23:57.064Z,73.10
2018-03-03T18:26:24.636Z,73.60
2018-03-03T18:28:53.818Z,74.10
2018-03-03T18:31:22.142Z,73.70
2018-03-03T18:33:49.877Z,73.60
2018-03-03T18:36:17.614Z,73.00
2018-03-03T18:38:45.268Z,73.30
2018-03-03T18:41:13.147Z,73.20
2018-03-03T18:43:40.768Z,73.30
2018-03-03T18:46:08.323Z,73.60
2018-03-03T18:48:35.964Z,73.70
2018-03-03T18:51:03.886Z,73.50
2018-03-03T18:53:32.422Z,74.30
2018-03-03T18:56:00.075Z,74.20
2018-03-03T18:58:27.886Z,74.00
2018-03-03T19:00:55.419Z,74.10
2018-03-03T19:03:24.279Z,74.10
2018-03-03T19:05:51.896Z,73.80
2018-03-03T19:08:19.442Z,74.10
2018-03-03T19:10:47.020Z,74.20
2018-03-03T19:13:14.608Z,74.20
2018-03-03T19:15:42.954Z,74.90
2018-03-03T19:18:10.508Z,74.90
2018-03-03T19:20:38.092Z,75.00
2018-03-03T19:23:05.648Z,75.00
2018-03-03T19:25:33.254Z,75.10
2018-03-03T19:28:01.101Z,90.60
2018-03-03T19:30:28.751Z,83.90
2018-03-03T19:32:57.061Z,82.70
2018-03-03T19:35:25.248Z,82.60
2018-03-03T19:37:52.869Z,79.50
2018-03-03T19:40:21.243Z,78.10
2018-03-03T19:42:48.881Z,78.10
2018-03-03T19:45:16.434Z,78.60
2018-03-03T19:47:44.735Z,79.00
2018-03-03T19:50:12.379Z,78.90
2018-03-03T19:52:40.726Z,78.90
2018-03-03T19:55:08.410Z,79.30
2018-03-03T19:57:36.016Z,79.50
2018-03-03T20:00:04.343Z,80.20
2018-03-03T20:02:31.892Z,79.50
2018-03-03T20:05:00.517Z,79.90
2018-03-03T20:07:28.055Z,79.90
2018-03-03T20:09:56.359Z,81.00
2018-03-03T20:12:24.705Z,81.20
2018-03-03T20:14:52.339Z,81.20
2018-03-03T20:17:19.910Z,80.90
2018-03-03T20:19:47.688Z,81.00
2018-03-03T20:22:15.363Z,81.30
2018-03-03T20:24:42.938Z,81.40
2018-03-03T20:27:10.651Z,82.10
2018-03-03T20:29:38.487Z,82.60
2018-03-03T20:32:06.022Z,82.90
2018-03-03T20:34:34.548Z,83.60
2018-03-03T20:37:02.103Z,83.40
2018-03-03T20:39:30.401Z,84.40
2018-03-03T20:41:58.095Z,84.40
2018-03-03T20:44:25.719Z,84.70
2018-03-03T20:46:53.458Z,84.70
2018-03-03T20:49:21.047Z,86.10
2018-03-03T20:51:48.578Z,86.00
2018-03-03T20:54:16.246Z,86.20
2018-03-03T20:56:43.927Z,90.30
2018-03-03T20:59:11.463Z,90.10
2018-03-03T21:01:39.787Z,90.00
2018-03-03T21:04:07.481Z,89.90
2018-03-03T21:06:35.161Z,89.00
2018-03-03T21:09:02.720Z,90.20
2018-03-03T21:11:33.783Z,90.80
2018-03-03T21:14:01.327Z,91.00
2018-03-03T21:16:28.858Z,91.10
2018-03-03T21:18:56.539Z,90.00
2018-03-03T21:21:24.843Z,90.10
2018-03-03T21:23:52.462Z,90.10
2018-03-03T21:26:20.046Z,90.50
2018-03-03T21:28:47.776Z,90.70
2018-03-03T21:31:15.352Z,90.80
2018-03-03T21:33:42.941Z,90.90
2018-03-03T21:36:10.597Z,91.00
2018-03-03T21:38:38.134Z,91.20
2018-03-03T21:41:06.480Z,91.30
2018-03-03T21:43:34.014Z,91.20
2018-03-03T21:46:01.556Z,91.20
2018-03-03T21:48:29.165Z,91.40
2018-03-03T21:50:56.723Z,91.30
2018-03-03T21:53:24.291Z,91.20
2018-03-03T21:55:52.655Z,91.30
2018-03-03T21:58:20.270Z,91.30
2018-03-03T22:00:47.870Z,91.40
2018-03-03T22:03:15.529Z,91.40
2018-03-03T22:05:43.067Z,91.50
2018-03-03T22:08:11.385Z,91.70
2018-03-03T22:10:39.159Z,91.70
2018-03-03T22:13:06.694Z,91.70
2018-03-03T22:15:35.026Z,91.70
2018-03-03T22:18:03.201Z,91.70
2018-03-03T22:20:30.735Z,91.60
2018-03-03T22:22:59.047Z,91.70
2018-03-03T22:25:26.630Z,91.70
2018-03-03T22:27:54.219Z,91.50
2018-03-03T22:30:21.876Z,91.50
2018-03-03T22:32:49.550Z,91.60
2018-03-03T22:35:17.207Z,91.60
2018-03-03T22:37:47.969Z,91.70
2018-03-03T22:40:15.554Z,91.50
2018-03-03T22:42:43.127Z,91.30
2018-03-03T22:45:10.699Z,91.40
2018-03-03T22:47:38.383Z,91.70
2018-03-03T22:50:05.932Z,91.40
2018-03-03T22:52:33.498Z,91.50
2018-03-03T22:55:01.088Z,91.50
2018-03-03T22:57:28.640Z,91.30
2018-03-03T22:59:56.181Z,91.30
2018-03-03T23:02:24.527Z,91.40
2018-03-03T23:04:52.070Z,91.40
2018-03-03T23:07:19.642Z,91.10
2018-03-03T23:09:47.418Z,91.10
2018-03-03T23:12:14.951Z,91.00
2018-03-03T23:14:42.494Z,91.20
2018-03-03T23:17:10.081Z,91.10
2018-03-03T23:19:37.716Z,90.90
2018-03-03T23:22:05.377Z,91.10
2018-03-03T23:24:32.954Z,91.30
2018-03-03T23:27:00.503Z,91.30
2018-03-03T23:29:28.912Z,91.50
2018-03-03T23:31:56.584Z,91.50
2018-03-03T23:34:24.110Z,91.50
2018-03-03T23:36:51.643Z,91.40
2018-03-03T23:39:19.218Z,91.40
2018-03-03T23:41:46.871Z,91.30
2018-03-03T23:44:14.406Z,91.20
2018-03-03T23:46:42.758Z,90.90
2018-03-03T23:49:10.324Z,91.10
2018-03-03T23:51:37.867Z,91.10
2018-03-03T23:54:05.652Z,90.90
2018-03-03T23:56:33.218Z,91.10
2018-03-03T23:59:00.744Z,91.20
